Flight Track Log - Related Links

Times and Time Zones

All times are in EST time to prevent confusion due to time zone crossing. See the VIR19 flight status page for this flight to view local times or setup timezone preferences in your user account.

Time Position Orientation Groundspeed Altitude Reporting Facility
EST Latitude Longitude Course Direction KTS MPH feet Rate Location/Type
Fri 06:31:06 AM 51.4775 -0.4919 270° West 167 192 600  Level FlightAware ADS-B (EGLF / FAB)
Fri 06:31:27 AM 51.4774 -0.5207 269° West 171 197 1,200 1,920 Climbing FlightAware ADS-B (EGLF / FAB)
Fri 06:31:31 AM 51.4773 -0.5282 269° West 170 196 1,400 2,143 Climbing FlightAware ADS-B
Fri 06:31:41 AM 51.4771 -0.5409 270° West 173 199 1,700 1,636 Climbing FlightAware ADS-B
Fri 06:31:42 AM 51.4771 -0.5396 270° West 174 200 1,700 750 Level FlightAware ADS-B
Fri 06:31:49 AM 51.4779 -0.5514 281° West 181 208 1,800 857 Climbing FlightAware ADS-B
Fri 06:31:56 AM 51.4798 -0.5605 293° West 190 219 1,900 1,091 Climbing FlightAware ADS-B
Fri 06:32:00 AM 51.4811 -0.5645 296° West 194 223 2,000 857 Climbing FlightAware ADS-B
Fri 06:32:03 AM 51.4824 -0.5683 296° West 195 224 2,000 1,200 Level FlightAware ADS-B
Fri 06:32:05 AM 51.4833 -0.5709 298° West 199 229 2,100 1,385 Climbing FlightAware ADS-B
Fri 06:32:16 AM 51.4882 -0.5855 299° West 207 238 2,300 1,412 Climbing FlightAware ADS-B (EGLF / FAB)
Fri 06:32:22 AM 51.4912 -0.5936 299° West 210 242 2,500 2,471 Climbing FlightAware ADS-B
Fri 06:32:33 AM 51.4966 -0.6099 299° West 208 239 3,000 2,400 Climbing FlightAware ADS-B
Fri 06:32:37 AM 51.4983 -0.6139 299° West 207 238 3,100 1,600 Climbing FlightAware ADS-B
Fri 06:32:48 AM 51.5031 -0.6289 298° West 208 239 3,400 1,765 Climbing FlightAware ADS-B
Fri 06:32:54 AM 51.5059 -0.6371 298° West 209 241 3,600 2,000 Climbing FlightAware ADS-B
Fri 06:33:06 AM 51.5119 -0.6549 298° West 210 242 4,000 1,667 Climbing FlightAware ADS-B
Fri 06:33:12 AM 51.5143 -0.6616 302° West 212 244 4,100 1,333 Climbing FlightAware ADS-B
Fri 06:33:15 AM 51.5165 -0.6670 305° West 214 246 4,200 1,000 Climbing FlightAware ADS-B
Fri 06:33:18 AM 51.5170 -0.6670 309° West 215 247 4,200 1,200 Level FlightAware ADS-B
Fri 06:33:20 AM 51.5196 -0.6717 315° West 216 249 4,300 2,400 Climbing FlightAware ADS-B
Fri 06:33:23 AM 51.5216 -0.6748 320° Northwest 217 250 4,400 1,500 Climbing FlightAware ADS-B
Fri 06:33:24 AM 51.5226 -0.6757 322° Northwest 217 250 4,400 1,500 Level FlightAware ADS-B
Fri 06:33:27 AM 51.5254 -0.6783 331° Northwest 219 252 4,500 2,000 Climbing FlightAware ADS-B
Fri 06:33:30 AM 51.5272 -0.6805 337° Northwest 222 255 4,600 1,200 Climbing FlightAware ADS-B
Fri 06:33:32 AM 51.5288 -0.6812 342° North 225 259 4,600  Level FlightAware ADS-B
Fri 06:33:33 AM 51.5312 -0.6822 342° North 225 259 4,600 2,000 Level FlightAware ADS-B
Fri 06:33:38 AM 51.5365 -0.6842 349° North 228 262 4,800 2,000 Climbing FlightAware ADS-B
Fri 06:33:42 AM 51.5410 -0.6853 354° North 232 267 4,900 750 Climbing FlightAware ADS-B
Fri 06:33:46 AM 51.5446 -0.6856 358° North 236 272 4,900 667 Level FlightAware ADS-B
Fri 06:33:51 AM 51.5504 -0.6858 North 241 277 5,000 1,333 Climbing FlightAware ADS-B
Fri 06:33:55 AM 51.5423 -0.6855 North 246 283 5,100 1,000 Climbing FlightAware ADS-B (EGLF / FAB)
Fri 06:34:03 AM 51.5647 -0.6856 360° North 254 292 5,200 1,043 Climbing FlightAware ADS-B (EGLF / FAB)
Fri 06:34:18 AM 51.5777 -0.6860 358° North 258 297 5,500 1,059 Climbing FlightAware ADS-B
Fri 06:34:37 AM 51.6050 -0.6882 357° North 270 311 5,800 529 Climbing FlightAware ADS-B (EGLC / LCY)
Fri 06:34:52 AM 51.6239 -0.6900 357° North 276 318 5,800 387 Level FlightAware ADS-B (EGLC / LCY)
Fri 06:35:08 AM 51.6452 -0.6924 356° North 294 338 6,000 1,313 Climbing FlightAware ADS-B (EGLC / LCY)
Fri 06:35:24 AM 51.6673 -0.6950 356° North 305 351 6,500 1,235 Climbing FlightAware ADS-B
Fri 06:35:42 AM 51.6944 -0.6982 356° North 324 373 6,700 833 Climbing FlightAware ADS-B
Fri 06:36:00 AM 51.7205 -0.7009 357° North 343 395 7,000 529 Climbing FlightAware ADS-B (EGLC / LCY)
Fri 06:36:16 AM 51.7467 -0.7036 356° North 352 405 7,000  Level FlightAware ADS-B (EGLC / LCY)
Fri 06:36:36 AM 51.7795 -0.7072 356° North 354 407 7,000  Level FlightAware ADS-B (EGLC / LCY)
Fri 06:36:53 AM 51.8053 -0.7104 356° North 355 409 7,000  Level FlightAware ADS-B (KALB)
Fri 06:37:02 AM 51.8218 -0.7122 356° North 356 410 7,000 500 Level FlightAware ADS-B
Fri 06:37:17 AM 51.8464 -0.7146 357° North 357 411 7,200 938 Climbing FlightAware ADS-B (EGLC / LCY)
Fri 06:37:34 AM 51.8760 -0.7176 357° North 359 413 7,500 1,846 Climbing FlightAware ADS-B (EGLC / LCY)
Fri 06:37:56 AM 51.9093 -0.7209 356° North 361 415 8,400 2,000 Climbing FlightAware ADS-B (KALB)
Fri 06:38:16 AM 51.9450 -0.7248 356° North 364 419 8,900 1,950 Climbing FlightAware ADS-B
Fri 06:38:36 AM 51.9796 -0.7288 356° North 366 421 9,700 2,727 Climbing FlightAware ADS-B
Fri 06:38:49 AM 52.0007 -0.7314 352° North 367 422 10,400 2,087 Climbing FlightAware ADS-B
Fri 06:38:59 AM 52.0177 -0.7354 356° North 361 415 10,500 1,538 Climbing FlightAware ADS-B (EGLF / FAB)
Fri 06:39:28 AM 52.0621 -0.7543 345° North 367 422 11,400 2,028 Climbing FlightAware ADS-B (KALB)
Fri 06:40:10 AM 52.1353 -0.7908 344° North 381 438 12,900 1,917 Climbing FlightAware ADS-B
Fri 06:40:40 AM 52.1651 -0.8054 345° North 388 447 13,700 1,222 Climbing FlightAware ADS-B
Fri 06:41:04 AM 52.2255 -0.8324 346° North 393 452 14,000 1,179 Climbing FlightAware ADS-B (EGLF / FAB)
Fri 06:41:36 AM 52.2851 -0.8536 354° North 411 473 14,800 1,650 Climbing FlightAware ADS-B (EGLF / FAB)
Fri 06:41:44 AM 52.3003 -0.8556 356° North 415 478 15,100 1,556 Climbing FlightAware ADS-B
Fri 06:42:03 AM 52.3346 -0.8594 357° North 425 489 15,500 1,245 Climbing FlightAware ADS-B
Fri 06:42:37 AM 52.4059 -0.8677 356° North 433 498 16,200 1,263 Climbing FlightAware ADS-B (KALB)
Fri 06:42:41 AM 52.4124 -0.8692 352° North 424 488 16,300 1,784 Climbing FlightAware ADS-B (EGNR / CEG)
Fri 06:43:14 AM 52.4789 -0.8941 346° North 433 498 17,300 1,875 Climbing FlightAware ADS-B (KCCR)
Fri 06:43:45 AM 52.5143 -0.9085 346° North 441 507 18,300 1,915 Climbing FlightAware ADS-B (EGLF / FAB)
Fri 06:44:01 AM 52.5698 -0.9305 346° North 428 493 18,800 1,959 Climbing FlightAware ADS-B (EGNR / CEG)
Fri 06:44:34 AM 52.6381 -0.9570 346° North 450 518 19,900 2,160 Climbing FlightAware ADS-B (KCCR)
Fri 06:44:51 AM 52.6696 -0.9747 335° Northwest 437 503 20,600 2,143 Climbing FlightAware ADS-B
Fri 06:45:02 AM 52.6908 -0.9926 333° Northwest 434 499 20,900 1,600 Climbing FlightAware ADS-B
Fri 06:45:36 AM 52.7479 -1.0439 332° Northwest 439 505 21,800 1,791 Climbing FlightAware ADS-B (EGLF / FAB)
Fri 06:46:09 AM 52.8095 -1.0986 332° Northwest 444 511 22,900 2,000 Climbing FlightAware ADS-B
Fri 06:46:24 AM 52.8376 -1.1244 331° Northwest 440 506 23,400 1,920 Climbing FlightAware ADS-B (KCCR)
Fri 06:46:34 AM 52.8555 -1.1406 331° Northwest 441 507 23,700 1,579 Climbing FlightAware ADS-B (KCCR)
Fri 06:47:02 AM 52.9061 -1.1850 332° Northwest 455 524 24,400 1,448 Climbing FlightAware ADS-B
Fri 06:47:32 AM 52.9588 -1.2323 331° Northwest 463 533 25,100 1,500 Climbing FlightAware ADS-B (EGNT / NCL)
Fri 06:47:42 AM 52.9823 -1.2546 332° Northwest 467 537 25,400 1,263 Climbing FlightAware ADS-B
Fri 06:47:51 AM 52.9984 -1.2685 332° Northwest 472 543 25,500 1,200 Climbing FlightAware ADS-B
Fri 06:48:02 AM 53.0195 -1.2876 332° Northwest 474 545 25,800 1,636 Climbing FlightAware ADS-B
Fri 06:48:13 AM 53.0419 -1.3088 332° Northwest 477 549 26,100 1,636 Climbing FlightAware ADS-B
Fri 06:48:24 AM 53.0591 -1.3245 332° Northwest 481 554 26,400 1,535 Climbing FlightAware ADS-B
Fri 06:48:56 AM 53.1262 -1.3845 331° Northwest 480 552 27,200 1,500 Climbing FlightAware ADS-B (EGGP / LPL)
Fri 06:49:16 AM 53.1644 -1.4182 331° Northwest 477 549 27,700 1,615 Climbing FlightAware ADS-B (KCCR)
Fri 06:49:48 AM 53.2305 -1.4767 333° Northwest 496 571 28,600 1,452 Climbing FlightAware ADS-B
Fri 06:50:18 AM 53.2895 -1.5287 332° Northwest 501 577 29,200 1,273 Climbing FlightAware ADS-B
Fri 06:50:21 AM 53.2977 -1.5359 333° Northwest 500 575 29,300 2,000 Climbing FlightAware ADS-B
Fri 06:50:30 AM 53.3148 -1.5502 333° Northwest 499 574 29,600 1,440 Climbing FlightAware ADS-B
Fri 06:50:46 AM 53.3493 -1.5808 333° Northwest 500 575 29,900 1,200 Climbing FlightAware ADS-B
Fri 06:50:50 AM 53.3561 -1.5860 332° Northwest 494 568 30,000 600 Climbing FlightAware ADS-B (EGGP / LPL)
Fri 06:50:56 AM 53.3687 -1.5969 332° Northwest 493 567 30,000  Level FlightAware ADS-B (EGNR / CEG)
Fri 06:51:30 AM 53.4366 -1.6578 332° Northwest 498 573 30,000  Level FlightAware ADS-B
Fri 06:51:35 AM 53.4493 -1.6686 333° Northwest 496 571 30,000  Level FlightAware ADS-B
Fri 06:52:06 AM 53.5092 -1.7220 332° Northwest 492 566 30,000  Level FlightAware ADS-B (EGLF / FAB)
Fri 06:52:38 AM 53.5755 -1.7809 332° Northwest 490 564 30,000  Level FlightAware ADS-B (EGGP / LPL)
Fri 06:53:08 AM 53.6372 -1.8352 332° Northwest 493 567 30,000  Level FlightAware ADS-B (EGGP / LPL)
Fri 06:53:17 AM 53.6557 -1.8514 332° Northwest 493 567 30,000  Level FlightAware ADS-B (EGGP / LPL)
Fri 06:53:47 AM 53.7089 -1.8979 333° Northwest 498 573 30,000  Level FlightAware ADS-B
Fri 06:53:51 AM 53.7234 -1.9103 332° Northwest 490 564 30,000  Level FlightAware ADS-B
Fri 06:54:03 AM 53.7451 -1.9301 333° Northwest 495 570 30,000  Level FlightAware ADS-B (EGCW)
Fri 06:54:17 AM 53.7772 -1.9570 333° Northwest 498 573 30,000  Level FlightAware ADS-B
Fri 06:54:28 AM 53.7985 -1.9764 333° Northwest 498 573 30,000  Level FlightAware ADS-B
Fri 06:55:01 AM 53.8650 -2.0346 333° Northwest 492 566 30,000  Level FlightAware ADS-B (EGXU / HRT)
Fri 06:55:05 AM 53.8718 -2.0397 333° Northwest 492 566 30,000  Level FlightAware ADS-B
Fri 06:55:36 AM 53.9372 -2.0912 336° Northwest 496 571 30,000  Level FlightAware ADS-B
Fri 06:55:42 AM 53.9520 -2.1027 336° Northwest 495 570 30,000  Level FlightAware ADS-B
Fri 06:55:52 AM 53.9710 -2.1182 332° Northwest 486 559 30,000  Level FlightAware ADS-B
Fri 06:56:24 AM 54.0270 -2.1680 332° Northwest 493 567 30,000  Level FlightAware ADS-B
Fri 06:56:36 AM 54.0594 -2.1968 332° Northwest 493 567 30,000  Level FlightAware ADS-B
Fri 06:56:50 AM 54.0885 -2.2217 332° Northwest 493 567 30,000  Level FlightAware ADS-B
Fri 06:57:25 AM 54.1606 -2.2849 333° Northwest 494 568 30,000  Level FlightAware ADS-B (EGNT / NCL)
Fri 06:57:35 AM 54.1800 -2.3006 333° Northwest 488 562 30,000  Level FlightAware ADS-B
Fri 06:57:56 AM 54.2240 -2.3389 333° Northwest 487 560 30,000  Level FlightAware ADS-B
Fri 06:58:00 AM 54.2321 -2.3459 333° Northwest 495 570 30,000  Level FlightAware ADS-B (EGCW)
Fri 06:58:15 AM 54.2619 -2.3701 333° Northwest 483 556 30,000  Level FlightAware ADS-B
Fri 06:58:45 AM 54.3232 -2.4233 333° Northwest 480 552 30,000  Level FlightAware ADS-B (EGNT / NCL)
Fri 06:59:16 AM 54.3820 -2.4742 333° Northwest 475 547 30,000  Level FlightAware ADS-B (EGXU / HRT)
Fri 06:59:46 AM 54.4426 -2.5264 333° Northwest 469 540 30,000  Level FlightAware ADS-B (EGCC / MAN)
Fri 07:00:17 AM 54.4999 -2.5765 333° Northwest 464 534 30,000  Level FlightAware ADS-B (EGNT / NCL)
Fri 07:00:47 AM 54.5595 -2.6282 333° Northwest 462 532 30,000  Level FlightAware ADS-B (EGPH / EDI)
Fri 07:01:17 AM 54.6155 -2.6763 333° Northwest 460 529 30,000  Level FlightAware ADS-B (EGNT / NCL)
Fri 07:01:38 AM 54.6553 -2.7113 332° Northwest 454 522 30,000  Level FlightAware ADS-B
Fri 07:02:09 AM 54.7128 -2.7633 333° Northwest 465 535 30,000  Level FlightAware ADS-B (EGNT / NCL)
Fri 07:02:17 AM 54.7296 -2.7769 332° Northwest 458 527 30,000  Level FlightAware ADS-B
Fri 07:02:49 AM 54.7912 -2.8326 333° Northwest 464 534 30,000  Level FlightAware ADS-B (EGNT / NCL)
Fri 07:03:23 AM 54.8526 -2.8870 333° Northwest 467 537 30,000  Level FlightAware ADS-B
Fri 07:03:54 AM 54.9138 -2.9414 333° Northwest 465 535 30,000  Level FlightAware ADS-B (EGPH / EDI)
Fri 07:04:15 AM 54.9565 -2.9788 332° Northwest 458 527 30,000  Level FlightAware ADS-B
Fri 07:04:52 AM 55.0264 -3.0420 333° Northwest 463 533 30,000  Level FlightAware ADS-B
Fri 07:05:18 AM 55.0679 -3.0776 332° Northwest 454 522 30,000  Level FlightAware ADS-B
Fri 07:05:32 AM 55.0993 -3.1068 332° Northwest 454 522 30,000  Level FlightAware ADS-B
Fri 07:05:40 AM 55.1189 -3.1237 333° Northwest 459 528 30,000  Level FlightAware ADS-B (EGCN / DSA)
Fri 07:06:14 AM 55.1803 -3.1798 333° Northwest 456 525 30,000  Level FlightAware ADS-B
Fri 07:06:44 AM 55.2374 -3.2322 333° Northwest 454 522 30,000  Level FlightAware ADS-B (EGPH / EDI)
Fri 07:07:14 AM 55.2934 -3.2828 333° Northwest 452 520 30,000  Level FlightAware ADS-B
Fri 07:07:56 AM 55.3689 -3.3521 333° Northwest 452 520 30,000  Level FlightAware ADS-B
Fri 07:08:26 AM 55.4262 -3.4046 333° Northwest 450 518 30,000  Level FlightAware ADS-B
Fri 07:08:57 AM 55.4804 -3.4537 333° Northwest 450 518 30,000  Level FlightAware ADS-B
Fri 07:09:03 AM 55.4773 -3.4503 332° Northwest 450 518 30,000  Level FlightAware ADS-B
Fri 07:09:17 AM 55.5177 -3.4876 333° Northwest 450 518 30,000  Level FlightAware ADS-B
Fri 07:09:49 AM 55.5789 -3.5440 332° Northwest 453 521 30,000  Level FlightAware ADS-B
Fri 07:10:28 AM 55.6441 -3.6059 332° Northwest 454 522 30,000  Level FlightAware ADS-B
Fri 07:10:59 AM 55.7027 -3.6594 332° Northwest 455 524 30,000  Level FlightAware ADS-B
Fri 07:11:30 AM 55.7672 -3.7202 332° Northwest 455 524 30,000  Level FlightAware ADS-B
Fri 07:12:02 AM 55.8261 -3.7759 332° Northwest 455 524 30,000  Level FlightAware ADS-B
Fri 07:12:32 AM 55.8808 -3.8269 332° Northwest 458 527 30,000  Level FlightAware ADS-B
Fri 07:13:05 AM 55.9437 -3.8868 332° Northwest 459 528 30,000  Level FlightAware ADS-B
Fri 07:13:35 AM 55.9943 -3.9347 332° Northwest 459 528 30,000  Level FlightAware ADS-B
Fri 07:14:07 AM 56.0566 -3.9992 325° Northwest 449 517 30,000  Level FlightAware ADS-B
Fri 07:14:32 AM 56.0993 -4.0533 323° Northwest 439 505 30,000  Level FlightAware ADS-B
Fri 07:14:51 AM 56.1319 -4.0962 325° Northwest 445 512 30,000  Level FlightAware ADS-B
Fri 07:15:28 AM 56.1935 -4.1750 324° Northwest 441 507 30,000  Level FlightAware ADS-B
Fri 07:15:58 AM 56.2426 -4.2392 324° Northwest 438 504 30,000  Level FlightAware ADS-B
Fri 07:16:28 AM 56.2915 -4.3008 324° Northwest 436 502 30,000  Level FlightAware ADS-B
Fri 07:16:45 AM 56.3155 -4.3325 325° Northwest 437 503 30,000  Level FlightAware ADS-B
Fri 07:17:20 AM 56.3822 -4.4034 330° Northwest 444 511 30,000  Level FlightAware ADS-B
Fri 07:17:49 AM 56.4344 -4.4563 332° Northwest 448 516 30,000  Level FlightAware ADS-B
Fri 07:17:58 AM 56.4492 -4.4705 331° Northwest 441 507 30,000  Level FlightAware ADS-B
Fri 07:18:28 AM 56.5060 -4.5234 333° Northwest 447 514 30,000  Level FlightAware ADS-B
Fri 07:19:07 AM 56.5772 -4.5893 333° Northwest 446 513 30,000  Level FlightAware ADS-B
Fri 07:19:38 AM 56.6322 -4.6398 333° Northwest 443 510 30,000  Level FlightAware ADS-B
Fri 07:19:41 AM 56.6389 -4.6450 332° Northwest 436 502 30,000  Level FlightAware ADS-B
Fri 07:19:55 AM 56.6650 -4.6705 332° Northwest 435 501 30,000  Level FlightAware ADS-B
Fri 07:20:39 AM 56.7402 -4.7402 333° Northwest 441 507 30,000  Level FlightAware ADS-B
Fri 07:21:13 AM 56.8057 -4.8018 332° Northwest 436 502 30,000  Level FlightAware ADS-B
Fri 07:21:43 AM 56.8524 -4.8462 333° Northwest 439 505 30,000  Level FlightAware ADS-B (EGPH / EDI)
Fri 07:22:20 AM 56.9252 -4.9155 333° Northwest 433 498 30,000  Level FlightAware ADS-B
Fri 07:22:53 AM 56.9842 -4.9722 333° Northwest 432 497 30,000  Level FlightAware UK
Fri 07:23:00 AM 56.9959 -4.9829 332° Northwest 433 498 30,000  Level FlightAware ADS-B
Fri 07:23:43 AM 57.0731 -5.0566 332° Northwest 440 506 30,000  Level FlightAware ADS-B
Fri 07:24:17 AM 57.1310 -5.1119 333° Northwest 440 506 30,000  Level FlightAware ADS-B (EGPD / ABZ)
Fri 07:24:23 AM 57.1456 -5.1257 332° Northwest 439 505 30,000  Level FlightAware ADS-B
Fri 07:24:53 AM 57.1984 -5.1820 332° Northwest 434 499 30,000  Level FlightAware UK
Fri 07:25:05 AM 57.2181 -5.2036 328° Northwest 435 501 30,000  Level FlightAware ADS-B (EGPH / EDI)
Fri 07:25:37 AM 57.2660 -5.2583 329° Northwest 435 501 30,000  Level FlightAware ADS-B (EGPH / EDI)
Fri 07:26:08 AM 57.3276 -5.3276 329° Northwest 435 501 30,000  Level FlightAware ADS-B (EGPH / EDI)
Fri 07:26:42 AM 57.3852 -5.3908 329° Northwest 435 501 30,000  Level FlightAware ADS-B
Fri 07:27:22 AM 57.4543 -5.4667 329° Northwest 432 497 30,000  Level FlightAware ADS-B
Fri 07:28:02 AM 57.4430 -5.4553 329° Northwest 430 495 30,000  Level FlightAware ADS-B (EGPH / EDI)
Fri 07:28:35 AM 57.5789 -5.6075 329° Northwest 432 497 30,000  Level FlightAware UK
Fri 07:28:44 AM 57.5948 -5.6252 329° Northwest 433 498 30,000  Level FlightAware ADS-B
Fri 07:29:17 AM 57.6503 -5.6868 329° Northwest 435 501 30,000  Level FlightAware ADS-B
Fri 07:29:49 AM 57.7055 -5.7492 329° Northwest 436 502 30,000  Level FlightAware ADS-B (EGPH / EDI)
Fri 07:30:19 AM 57.7568 -5.8081 329° Northwest 438 504 30,000  Level FlightAware ADS-B
Fri 07:30:58 AM 57.8258 -5.8871 329° Northwest 439 505 30,000  Level FlightAware ADS-B
Fri 07:31:39 AM 57.8956 -5.9665 329° Northwest 440 506 30,000  Level FlightAware ADS-B
Fri 07:32:10 AM 57.9515 -6.0318 329° Northwest 442 509 30,000  Level FlightAware UK
Fri 07:32:21 AM 57.9697 -6.0527 329° Northwest 442 509 30,000  Level FlightAware ADS-B
Fri 07:33:01 AM 58.0388 -6.1309 328° Northwest 441 507 30,000  Level FlightAware ADS-B
Fri 07:33:40 AM 58.1082 -6.2132 328° Northwest 444 511 30,000  Level FlightAware UK
Fri 07:34:10 AM 58.1604 -6.2744 328° Northwest 446 513 30,000  Level FlightAware UK
Fri 07:34:40 AM 58.2129 -6.3361 328° Northwest 448 516 30,000  Level FlightAware UK
Fri 07:35:16 AM 58.2756 -6.4104 328° Northwest 448 516 30,000  Level FlightAware UK
Fri 07:35:46 AM 58.3280 -6.4731 328° Northwest 448 516 30,000  Level FlightAware UK
Fri 07:36:16 AM 58.3809 -6.5356 328° Northwest 448 516 30,000  Level FlightAware UK
Fri 07:36:46 AM 58.4336 -6.5985 328° Northwest 448 516 30,000  Level FlightAware UK
Fri 07:37:16 AM 58.4859 -6.6613 328° Northwest 448 516 30,000  Level FlightAware UK
Fri 07:37:46 AM 58.5384 -6.7248 328° Northwest 448 516 30,000  Level FlightAware UK
Fri 07:38:16 AM 58.5911 -6.7882 328° Northwest 450 518 30,000  Level FlightAware UK
Fri 07:38:46 AM 58.6440 -6.8527 328° Northwest 454 522 30,000  Level FlightAware UK
Fri 07:39:16 AM 58.6978 -6.9179 328° Northwest 456 525 30,000  Level FlightAware UK
Fri 07:39:46 AM 58.7512 -6.9832 328° Northwest 456 525 30,000  Level FlightAware UK
Fri 07:40:16 AM 58.8045 -7.0487 327° Northwest 456 525 30,000  Level FlightAware UK
Fri 07:40:46 AM 58.8578 -7.1143 328° Northwest 456 525 30,000  Level FlightAware UK
Fri 07:41:16 AM 58.9111 -7.1797 328° Northwest 454 522 30,000  Level FlightAware UK
Fri 07:41:46 AM 58.9641 -7.2454 327° Northwest 454 522 30,000  Level FlightAware UK
Fri 07:42:16 AM 59.0168 -7.3111 327° Northwest 452 520 30,000  Level FlightAware UK
Fri 07:42:46 AM 59.0693 -7.3769 327° Northwest 452 520 30,000  Level FlightAware UK
Fri 07:43:16 AM 59.1218 -7.4428 327° Northwest 452 520 30,000  Level FlightAware UK
Fri 07:43:46 AM 59.1743 -7.5088 327° Northwest 452 520 30,000  Level FlightAware UK
Fri 07:44:16 AM 59.2267 -7.5749 327° Northwest 450 518 30,000  Level FlightAware UK
Fri 07:44:46 AM 59.2792 -7.6413 327° Northwest 452 520 30,000  Level FlightAware UK
Fri 07:45:16 AM 59.3316 -7.7081 327° Northwest 452 520 30,000  Level FlightAware UK
Fri 07:45:46 AM 59.3839 -7.7753 327° Northwest 454 522 30,000  Level FlightAware UK
Fri 07:46:16 AM 59.4365 -7.8428 327° Northwest 454 522 30,000  Level FlightAware UK
Fri 07:46:52 AM 59.4995 -7.9233 327° Northwest 456 525 30,000  Level FlightAware UK
Fri 07:47:22 AM 59.5524 -7.9916 327° Northwest 456 525 30,000  Level FlightAware UK
Fri 07:47:52 AM 59.6052 -8.0604 327° Northwest 456 525 30,000  Level FlightAware UK
Fri 07:48:22 AM 59.6579 -8.1294 327° Northwest 456 525 30,000  Level FlightAware UK
Fri 07:48:52 AM 59.7107 -8.1985 327° Northwest 456 525 30,000  Level FlightAware UK
Fri 07:49:22 AM 59.7635 -8.2675 327° Northwest 458 527 30,000  Level FlightAware UK
Fri 07:49:52 AM 59.8162 -8.3371 326° Northwest 458 527 30,000  Level FlightAware UK
Fri 07:50:22 AM 59.8691 -8.4072 326° Northwest 458 527 30,000  Level FlightAware UK
Fri 07:50:52 AM 59.9217 -8.4773 326° Northwest 456 525 30,000  Level FlightAware UK
Fri 07:51:22 AM 59.9744 -8.5476 326° Northwest 458 527 30,000  Level FlightAware UK
Fri 07:51:52 AM 60.0271 -8.6182 326° Northwest 458 527 30,000 19 Level FlightAware UK
Fri 07:53:00 AM 60.1153 -8.8394 309° West  Level Estimated
Fri 08:00:00 AM 60.6518 -10.2323 309° West  Level Estimated
Fri 08:01:00 AM 60.7272 -10.4351 307° West  Level Estimated
Fri 08:02:00 AM 60.8023 -10.6388 307° West  Level Estimated
Fri 08:03:00 AM 60.8772 -10.8435 307° West  Level Estimated
Fri 08:04:00 AM 60.9517 -11.0491 307° West  Level Estimated
Fri 08:05:00 AM 61.0259 -11.2557 307° West  Level Estimated
Fri 08:06:00 AM 61.0998 -11.4632 306° West  Level Estimated
Fri 08:07:00 AM 61.1733 -11.6718 306° West  Level Estimated
Fri 08:08:00 AM 61.2465 -11.8813 306° West  Level Estimated
Fri 08:09:00 AM 61.3195 -12.0917 306° West  Level Estimated
Fri 08:10:00 AM 61.3920 -12.3032 306° West  Level Estimated
Fri 08:11:00 AM 61.4643 -12.5156 306° West  Level Estimated
Fri 08:12:00 AM 61.5362 -12.7290 305° West  Level Estimated
Fri 08:13:00 AM 61.6078 -12.9434 305° West  Level Estimated
Fri 08:14:00 AM 61.6791 -13.1588 305° West  Level Estimated
Fri 08:15:00 AM 61.7500 -13.3752 305° West  Level Estimated
Fri 08:16:00 AM 61.8205 -13.5926 305° West  Level Estimated
Fri 08:17:00 AM 61.8908 -13.8110 304° West  Level Estimated
Fri 08:18:00 AM 61.9606 -14.0304 304° West  Level Estimated
Fri 08:19:00 AM 62.0302 -14.2508 304° West  Level Estimated
Fri 08:20:00 AM 62.0993 -14.4722 304° West  Level Estimated
Fri 08:21:00 AM 62.1682 -14.6946 304° West  Level Estimated
Fri 08:22:00 AM 62.2366 -14.9180 303° West  Level Estimated
Fri 08:23:00 AM 62.3047 -15.1425 303° West  Level Estimated
Fri 08:24:00 AM 62.3725 -15.3679 303° West  Level Estimated
Fri 08:25:00 AM 62.4398 -15.5944 303° West  Level Estimated
Fri 08:26:00 AM 62.5068 -15.8219 303° West  Level Estimated
Fri 08:27:00 AM 62.5734 -16.0504 302° West  Level Estimated
Fri 08:28:00 AM 62.6397 -16.2799 302° West  Level Estimated
Fri 08:29:00 AM 62.7056 -16.5105 302° West  Level Estimated
Fri 08:30:00 AM 62.7711 -16.7421 302° West  Level Estimated
Fri 08:31:00 AM 62.8362 -16.9747 302° West  Level Estimated
Fri 08:32:00 AM 62.9009 -17.2083 301° West  Level Estimated
Fri 08:33:00 AM 62.9653 -17.4430 301° West  Level Estimated
Fri 08:34:00 AM 63.0292 -17.6787 301° West  Level Estimated
Fri 08:35:00 AM 63.0928 -17.9154 301° West  Level Estimated
Fri 08:36:00 AM 63.1559 -18.1532 301° West  Level Estimated
Fri 08:37:00 AM 63.2187 -18.3920 300° West  Level Estimated
Fri 08:38:00 AM 63.2811 -18.6319 300° West  Level Estimated
Fri 08:39:00 AM 63.3430 -18.8728 300° West  Level Estimated
Fri 08:40:00 AM 63.4046 -19.1147 300° West  Level Estimated
Fri 08:41:00 AM 63.4657 -19.3576 299° West  Level Estimated
Fri 08:42:00 AM 63.5264 -19.6016 299° West  Level Estimated
Fri 08:43:00 AM 63.5867 -19.8467 299° West  Level Estimated
Fri 08:44:00 AM 63.6466 -20.0927 299° West  Level Estimated
Fri 08:45:00 AM 63.7061 -20.3398 299° West  Level Estimated
Fri 08:46:00 AM 63.7651 -20.5880 298° West  Level Estimated
Fri 08:47:00 AM 63.8237 -20.8372 298° West  Level Estimated
Fri 08:48:00 AM 63.8819 -21.0874 298° West  Level Estimated
Fri 08:49:00 AM 63.9397 -21.3386 298° West  Level Estimated
Fri 08:50:00 AM 63.9970 -21.5909 297° West  Level Estimated
Fri 08:51:00 AM 64.0539 -21.8442 297° West  Level Estimated
Fri 08:52:00 AM 64.1103 -22.0986 297° West  Level Estimated
Fri 08:53:00 AM 64.1663 -22.3539 297° West  Level Estimated
Fri 08:54:00 AM 64.2218 -22.6103 297° West  Level Estimated
Fri 08:55:00 AM 64.2769 -22.8678 296° West  Level Estimated
Fri 08:56:00 AM 64.3315 -23.1262 296° West  Level Estimated
Fri 08:57:00 AM 64.3857 -23.3857 296° West  Level Estimated
Fri 08:58:00 AM 64.4394 -23.6462 296° West  Level Estimated
Fri 08:59:00 AM 64.4927 -23.9077 295° West  Level Estimated
Fri 09:00:00 AM 64.5454 -24.1702 295° West  Level Estimated
Fri 09:01:00 AM 64.5978 -24.4338 295° West  Level Estimated
Fri 09:02:00 AM 64.6496 -24.6984 295° West  Level Estimated
Fri 09:03:00 AM 64.7010 -24.9639 294° West  Level Estimated
Fri 09:04:00 AM 64.7519 -25.2305 294° West  Level Estimated
Fri 09:05:00 AM 64.8023 -25.4981 294° West  Level Estimated
Fri 09:06:00 AM 64.8522 -25.7666 294° West  Level Estimated
Fri 09:07:00 AM 64.9017 -26.0362 293° West  Level Estimated
Fri 09:08:00 AM 64.9506 -26.3068 293° West  Level Estimated
Fri 09:09:00 AM 64.9991 -26.5783 293° West  Level Estimated
Fri 09:10:00 AM 65.0471 -26.8508 293° West  Level Estimated
Fri 09:11:00 AM 65.0945 -27.1243 293° West  Level Estimated
Fri 09:12:00 AM 65.1415 -27.3988 292° West  Level Estimated
Fri 09:13:00 AM 65.1880 -27.6742 292° West  Level Estimated
Fri 09:14:00 AM 65.2339 -27.9507 292° West  Level Estimated
Fri 09:15:00 AM 65.2794 -28.2280 292° West  Level Estimated
Fri 09:16:00 AM 65.3243 -28.5063 291° West  Level Estimated
Fri 09:17:00 AM 65.3687 -28.7856 291° West  Level Estimated
Fri 09:18:00 AM 65.4127 -29.0658 291° West  Level Estimated
Fri 09:19:00 AM 65.4560 -29.3469 290° West  Level Estimated
Fri 09:20:00 AM 65.4989 -29.6290 290° West  Level Estimated
Fri 09:21:00 AM 65.5412 -29.9120 290° West  Level Estimated
Fri 09:22:00 AM 65.5831 -30.1959 290° West  Level Estimated
Fri 09:23:00 AM 65.6243 -30.4807 289° West  Level Estimated
Fri 09:24:00 AM 65.6651 -30.7664 289° West  Level Estimated
Fri 09:25:00 AM 65.7053 -31.0530 289° West  Level Estimated
Fri 09:26:00 AM 65.7449 -31.3405 289° West  Level Estimated
Fri 09:27:00 AM 65.7841 -31.6289 288° West  Level Estimated
Fri 09:28:00 AM 65.8227 -31.9181 288° West  Level Estimated
Fri 09:29:00 AM 65.8607 -32.2082 288° West  Level Estimated
Fri 09:30:00 AM 65.8982 -32.4992 288° West  Level Estimated
Fri 09:31:00 AM 65.9351 -32.7910 287° West  Level Estimated
Fri 09:32:00 AM 65.9715 -33.0836 287° West  Level Estimated
Fri 09:33:00 AM 66.0073 -33.3771 287° West  Level Estimated
Fri 09:34:00 AM 66.0426 -33.6714 287° West  Level Estimated
Fri 09:35:00 AM 66.0773 -33.9665 286° West  Level Estimated
Fri 09:36:00 AM 66.1114 -34.2624 286° West  Level Estimated
Fri 09:37:00 AM 66.1450 -34.5591 286° West  Level Estimated
Fri 09:38:00 AM 66.1780 -34.8565 285° West  Level Estimated
Fri 09:39:00 AM 66.2104 -35.1548 285° West  Level Estimated
Fri 09:40:00 AM 66.2423 -35.4538 285° West  Level Estimated
Fri 09:41:00 AM 66.2735 -35.7535 285° West  Level Estimated
Fri 09:42:00 AM 66.3042 -36.0540 284° West  Level Estimated
Fri 09:43:00 AM 66.3343 -36.3552 284° West  Level Estimated
Fri 09:44:00 AM 66.3639 -36.6572 284° West  Level Estimated
Fri 09:45:00 AM 66.3928 -36.9598 284° West  Level Estimated
Fri 09:46:00 AM 66.4212 -37.2631 283° West  Level Estimated
Fri 09:47:00 AM 66.4489 -37.5672 283° West  Level Estimated
Fri 09:48:00 AM 66.4761 -37.8718 283° West  Level Estimated
Fri 09:49:00 AM 66.5027 -38.1772 282° West  Level Estimated
Fri 09:50:00 AM 66.5287 -38.4832 282° West  Level Estimated
Fri 09:51:00 AM 66.5540 -38.7898 282° West  Level Estimated
Fri 09:52:00 AM 66.5788 -39.0970 282° West  Level Estimated
Fri 09:53:00 AM 66.6030 -39.4049 281° West  Level Estimated
Fri 09:54:00 AM 66.6266 -39.7133 281° West  Level Estimated
Fri 09:55:00 AM 66.6496 -40.0223 281° West  Level Estimated
Fri 09:56:00 AM 66.6719 -40.3319 280° West  Level Estimated
Fri 09:57:00 AM 66.6937 -40.6420 280° West  Level Estimated
Fri 09:58:00 AM 66.7148 -40.9527 280° West  Level Estimated
Fri 09:59:00 AM 66.7354 -41.2639 280° West  Level Estimated
Fri 10:00:00 AM 66.7553 -41.5756 279° West  Level Estimated
Fri 10:01:00 AM 66.7746 -41.8878 279° West  Level Estimated
Fri 10:02:00 AM 66.7933 -42.2005 279° West  Level Estimated
Fri 10:03:00 AM 66.8113 -42.5137 278° West  Level Estimated
Fri 10:04:00 AM 66.8288 -42.8273 278° West  Level Estimated
Fri 10:05:00 AM 66.8456 -43.1413 278° West  Level Estimated
Fri 10:06:00 AM 66.8618 -43.4558 278° West  Level Estimated
Fri 10:07:00 AM 66.8774 -43.7707 277° West  Level Estimated
Fri 10:08:00 AM 66.8923 -44.0860 277° West  Level Estimated
Fri 10:09:00 AM 66.9067 -44.4016 277° West  Level Estimated
Fri 10:10:00 AM 66.9203 -44.7177 276° West  Level Estimated
Fri 10:11:00 AM 66.9334 -45.0340 276° West  Level Estimated
Fri 10:12:00 AM 66.9458 -45.3507 276° West  Level Estimated
Fri 10:13:00 AM 66.9577 -45.6677 276° West  Level Estimated
Fri 10:14:00 AM 66.9688 -45.9851 275° West  Level Estimated
Fri 10:15:00 AM 66.9794 -46.3026 275° West  Level Estimated
Fri 10:16:00 AM 66.9893 -46.6205 275° West  Level Estimated
Fri 10:17:00 AM 66.9985 -46.9386 274° West  Level Estimated
Fri 10:18:00 AM 67.0072 -47.2570 274° West  Level Estimated
Fri 10:19:00 AM 67.0152 -47.5755 274° West  Level Estimated
Fri 10:20:00 AM 67.0225 -47.8943 274° West  Level Estimated
Fri 10:21:00 AM 67.0293 -48.2132 273° West  Level Estimated
Fri 10:22:00 AM 67.0353 -48.5323 273° West  Level Estimated
Fri 10:23:00 AM 67.0408 -48.8516 273° West  Level Estimated
Fri 10:24:00 AM 67.0456 -49.1710 272° West  Level Estimated
Fri 10:25:00 AM 67.0498 -49.4905 272° West  Level Estimated
Fri 10:26:00 AM 67.0533 -49.8102 272° West  Level Estimated
Fri 10:27:00 AM 67.0562 -50.1299 271° West  Level Estimated
Fri 10:28:00 AM 67.0584 -50.4496 271° West  Level Estimated
Fri 10:29:00 AM 67.0600 -50.7695 271° West  Level Estimated
Fri 10:30:00 AM 67.0610 -51.0893 271° West  Level Estimated
Fri 10:31:00 AM 67.0613 -51.4092 270° West  Level Estimated
Fri 10:32:00 AM 67.0610 -51.7291 270° West  Level Estimated
Fri 10:33:00 AM 67.0600 -52.0489 270° West  Level Estimated
Fri 10:34:00 AM 67.0584 -52.3688 269° West  Level Estimated
Fri 10:35:00 AM 67.0562 -52.6885 269° West  Level Estimated
Fri 10:36:00 AM 67.0533 -53.0083 269° West  Level Estimated
Fri 10:37:00 AM 67.0498 -53.3279 269° West  Level Estimated
Fri 10:38:00 AM 67.0456 -53.6474 268° West  Level Estimated
Fri 10:39:00 AM 67.0408 -53.9668 268° West  Level Estimated
Fri 10:40:00 AM 67.0354 -54.2861 268° West  Level Estimated
Fri 10:41:00 AM 67.0293 -54.6052 267° West  Level Estimated
Fri 10:42:00 AM 67.0226 -54.9241 267° West  Level Estimated
Fri 10:43:00 AM 67.0152 -55.2429 267° West  Level Estimated
Fri 10:44:00 AM 67.0072 -55.5615 266° West  Level Estimated
Fri 10:45:00 AM 66.9986 -55.8798 266° West  Level Estimated
Fri 10:46:00 AM 66.9893 -56.1979 266° West  Level Estimated
Fri 10:47:00 AM 66.9794 -56.5158 266° West  Level Estimated
Fri 10:48:00 AM 66.9689 -56.8334 265° West  Level Estimated
Fri 10:49:00 AM 66.9577 -57.1507 265° West  Level Estimated
Fri 10:50:00 AM 66.9459 -57.4677 265° West  Level Estimated
Fri 10:51:00 AM 66.9335 -57.7844 264° West  Level Estimated
Fri 10:52:00 AM 66.9204 -58.1008 264° West  Level Estimated
Fri 10:53:00 AM 66.9067 -58.4168 264° West  Level Estimated
Fri 10:54:00 AM 66.8924 -58.7324 264° West  Level Estimated
Fri 10:55:00 AM 66.8775 -59.0477 263° West  Level Estimated
Fri 10:56:00 AM 66.8619 -59.3626 263° West  Level Estimated
Fri 10:57:00 AM 66.8457 -59.6771 263° West  Level Estimated
Fri 10:58:00 AM 66.8289 -59.9911 262° West  Level Estimated
Fri 10:59:00 AM 66.8114 -60.3048 262° West  Level Estimated
Fri 11:00:00 AM 66.7934 -60.6179 262° West  Level Estimated
Fri 11:01:00 AM 66.7747 -60.9306 262° West  Level Estimated
Fri 11:02:00 AM 66.7541 -61.2635 261° West  Level Estimated
Fri 11:03:00 AM 66.7328 -61.5959 261° West  Level Estimated
Fri 11:04:00 AM 66.7108 -61.9277 261° West  Level Estimated
Fri 11:05:00 AM 66.6881 -62.2589 260° West  Level Estimated
Fri 11:06:00 AM 66.6647 -62.5894 260° West  Level Estimated
Fri 11:07:00 AM 66.6406 -62.9193 260° West  Level Estimated
Fri 11:08:00 AM 66.6158 -63.2486 259° West  Level Estimated
Fri 11:09:00 AM 66.5904 -63.5772 259° West  Level Estimated
Fri 11:10:00 AM 66.5642 -63.9051 259° West  Level Estimated
Fri 11:11:00 AM 66.5374 -64.2324 259° West  Level Estimated
Fri 11:12:00 AM 66.5099 -64.5589 258° West  Level Estimated
Fri 11:13:00 AM 66.4817 -64.8847 258° West  Level Estimated
Fri 11:14:00 AM 66.4528 -65.2097 258° West  Level Estimated
Fri 11:15:00 AM 66.4233 -65.5340 257° West  Level Estimated
Fri 11:16:00 AM 66.3931 -65.8575 257° West  Level Estimated
Fri 11:17:00 AM 66.3622 -66.1802 257° West  Level Estimated
Fri 11:18:00 AM 66.3307 -66.5021 256° West  Level Estimated
Fri 11:19:00 AM 66.2984 -66.8232 256° West  Level Estimated
Fri 11:20:00 AM 66.2656 -67.1434 256° West  Level Estimated
Fri 11:21:00 AM 66.2320 -67.4629 256° West  Level Estimated
Fri 11:22:00 AM 66.1979 -67.7814 255° West  Level Estimated
Fri 11:23:00 AM 66.1630 -68.0991 255° West  Level Estimated
Fri 11:24:00 AM 66.1275 -68.4159 255° West  Level Estimated
Fri 11:25:00 AM 66.0914 -68.7319 254° West  Level Estimated
Fri 11:26:00 AM 66.0546 -69.0469 254° West  Level Estimated
Fri 11:27:00 AM 66.0172 -69.3610 254° West  Level Estimated
Fri 11:28:00 AM 65.9792 -69.6742 254° West  Level Estimated
Fri 11:29:00 AM 65.9405 -69.9864 253° West  Level Estimated
Fri 11:30:00 AM 65.9012 -70.2977 253° West  Level Estimated
Fri 11:31:00 AM 65.8612 -70.6080 253° West  Level Estimated
Fri 11:32:00 AM 65.8206 -70.9174 252° West  Level Estimated
Fri 11:33:00 AM 65.7794 -71.2257 252° West  Level Estimated
Fri 11:34:00 AM 65.7376 -71.5331 252° West  Level Estimated
Fri 11:35:00 AM 65.6952 -71.8395 252° West  Level Estimated
Fri 11:36:00 AM 65.6522 -72.1448 251° West  Level Estimated
Fri 11:37:00 AM 65.6085 -72.4492 251° West  Level Estimated
Fri 11:38:00 AM 65.5642 -72.7525 251° West  Level Estimated
Fri 11:39:00 AM 65.5194 -73.0548 250° West  Level Estimated
Fri 11:40:00 AM 65.4739 -73.3560 250° West  Level Estimated
Fri 11:41:00 AM 65.4279 -73.6562 250° West  Level Estimated
Fri 11:42:00 AM 65.3812 -73.9553 250° West  Level Estimated
Fri 11:43:00 AM 65.3340 -74.2533 249° West  Level Estimated
Fri 11:44:00 AM 65.2862 -74.5503 249° West  Level Estimated
Fri 11:45:00 AM 65.2377 -74.8462 249° West  Level Estimated
Fri 11:46:00 AM 65.1888 -75.1410 249° West  Level Estimated
Fri 11:47:00 AM 65.1392 -75.4348 248° West  Level Estimated
Fri 11:48:00 AM 65.0891 -75.7274 248° West  Level Estimated
Fri 11:49:00 AM 65.0384 -76.0189 248° West  Level Estimated
Fri 11:50:00 AM 64.9871 -76.3093 247° West  Level Estimated
Fri 11:51:00 AM 64.9353 -76.5985 247° West  Level Estimated
Fri 11:52:00 AM 64.8829 -76.8867 247° West  Level Estimated
Fri 11:53:00 AM 64.8299 -77.1737 247° West  Level Estimated
Fri 11:54:00 AM 64.7765 -77.4596 246° West  Level Estimated
Fri 11:55:00 AM 64.7224 -77.7444 246° West  Level Estimated
Fri 11:56:00 AM 64.6678 -78.0280 246° West  Level Estimated
Fri 11:57:00 AM 64.6127 -78.3105 246° West  Level Estimated
Fri 11:58:00 AM 64.5570 -78.5918 245° Southwest  Level Estimated
Fri 11:59:00 AM 64.5008 -78.8719 245° Southwest  Level Estimated
Fri 12:00:00 PM 64.4441 -79.1510 245° Southwest  Level Estimated
Fri 12:01:00 PM 64.3869 -79.4288 245° Southwest  Level Estimated
Fri 12:02:00 PM 64.3291 -79.7055 244° Southwest  Level Estimated
Fri 12:03:00 PM 64.2708 -79.9810 244° Southwest  Level Estimated
Fri 12:04:00 PM 64.2120 -80.2554 244° Southwest  Level Estimated
Fri 12:05:00 PM 64.1526 -80.5286 244° Southwest  Level Estimated
Fri 12:06:00 PM 64.0928 -80.8006 243° Southwest  Level Estimated
Fri 12:07:00 PM 64.0325 -81.0715 243° Southwest  Level Estimated
Fri 12:08:00 PM 63.9716 -81.3412 243° Southwest  Level Estimated
Fri 12:09:00 PM 63.9103 -81.6097 243° Southwest  Level Estimated
Fri 12:10:00 PM 63.8485 -81.8770 242° Southwest  Level Estimated
Fri 12:11:00 PM 63.7861 -82.1432 242° Southwest  Level Estimated
Fri 12:12:00 PM 63.7233 -82.4081 242° Southwest  Level Estimated
Fri 12:13:00 PM 63.6600 -82.6719 242° Southwest  Level Estimated
Fri 12:14:00 PM 63.5962 -82.9345 241° Southwest  Level Estimated
Fri 12:15:00 PM 63.5320 -83.1960 241° Southwest  Level Estimated
Fri 12:16:00 PM 63.4673 -83.4562 241° Southwest  Level Estimated
Fri 12:17:00 PM 63.4021 -83.7153 241° Southwest  Level Estimated
Fri 12:18:00 PM 63.3364 -83.9732 241° Southwest  Level Estimated
Fri 12:19:00 PM 63.2703 -84.2299 240° Southwest  Level Estimated
Fri 12:20:00 PM 63.2037 -84.4855 240° Southwest  Level Estimated
Fri 12:21:00 PM 63.1366 -84.7399 240° Southwest  Level Estimated
Fri 12:22:00 PM 63.0691 -84.9930 240° Southwest  Level Estimated
Fri 12:23:00 PM 63.0012 -85.2450 239° Southwest  Level Estimated
Fri 12:24:00 PM 62.9328 -85.4959 239° Southwest  Level Estimated
Fri 12:25:00 PM 62.8639 -85.7456 239° Southwest  Level Estimated
Fri 12:26:00 PM 62.7947 -85.9940 239° Southwest  Level Estimated
Fri 12:27:00 PM 62.7250 -86.2414 238° Southwest  Level Estimated
Fri 12:28:00 PM 62.6548 -86.4875 238° Southwest  Level Estimated
Fri 12:29:00 PM 62.5842 -86.7325 238° Southwest  Level Estimated
Fri 12:30:00 PM 62.5132 -86.9763 238° Southwest  Level Estimated
Fri 12:31:00 PM 62.4418 -87.2190 238° Southwest  Level Estimated
Fri 12:32:00 PM 62.3700 -87.4605 237° Southwest  Level Estimated
Fri 12:33:00 PM 62.2977 -87.7009 237° Southwest  Level Estimated
Fri 12:34:00 PM 62.2250 -87.9400 237° Southwest  Level Estimated
Fri 12:35:00 PM 62.1520 -88.1781 237° Southwest  Level Estimated
Fri 12:36:00 PM 62.0785 -88.4150 237° Southwest  Level Estimated
Fri 12:37:00 PM 62.0046 -88.6507 236° Southwest  Level Estimated
Fri 12:38:00 PM 61.9303 -88.8853 236° Southwest  Level Estimated
Fri 12:39:00 PM 61.8556 -89.1188 236° Southwest  Level Estimated
Fri 12:40:00 PM 61.7805 -89.3511 236° Southwest  Level Estimated
Fri 12:41:00 PM 61.7050 -89.5823 236° Southwest  Level Estimated
Fri 12:42:00 PM 61.6292 -89.8123 235° Southwest  Level Estimated
Fri 12:43:00 PM 61.5529 -90.0413 235° Southwest  Level Estimated
Fri 12:44:00 PM 61.4763 -90.2691 235° Southwest  Level Estimated
Fri 12:45:00 PM 61.3993 -90.4957 235° Southwest  Level Estimated
Fri 12:46:00 PM 61.3219 -90.7213 235° Southwest  Level Estimated
Fri 12:47:00 PM 61.2441 -90.9457 234° Southwest  Level Estimated
Fri 12:48:00 PM 61.1660 -91.1691 234° Southwest  Level Estimated
Fri 12:49:00 PM 61.0875 -91.3913 234° Southwest  Level Estimated
Fri 12:50:00 PM 61.0087 -91.6124 234° Southwest  Level Estimated
Fri 12:51:00 PM 60.9295 -91.8325 234° Southwest  Level Estimated
Fri 12:52:00 PM 60.8499 -92.0514 233° Southwest  Level Estimated
Fri 12:53:00 PM 60.7700 -92.2692 233° Southwest  Level Estimated
Fri 12:54:00 PM 60.6897 -92.4860 233° Southwest  Level Estimated
Fri 12:55:00 PM 60.6091 -92.7017 233° Southwest  Level Estimated
Fri 12:56:00 PM 60.5281 -92.9163 233° Southwest  Level Estimated
Fri 12:57:00 PM 60.4468 -93.1298 232° Southwest  Level Estimated
Fri 12:58:00 PM 60.3652 -93.3423 232° Southwest  Level Estimated
Fri 12:59:00 PM 60.2832 -93.5537 232° Southwest  Level Estimated
Fri 01:00:00 PM 60.2009 -93.7640 232° Southwest  Level Estimated
Fri 01:01:00 PM 60.1182 -93.9733 232° Southwest  Level Estimated
Fri 01:02:00 PM 60.0352 -94.1815 231° Southwest  Level Estimated
Fri 01:03:00 PM 59.9519 -94.3887 231° Southwest  Level Estimated
Fri 01:04:00 PM 59.8683 -94.5948 231° Southwest  Level Estimated
Fri 01:05:00 PM 59.7844 -94.8000 231° Southwest  Level Estimated
Fri 01:06:00 PM 59.7001 -95.0040 231° Southwest  Level Estimated
Fri 01:06:37 PM 62.5667 -103.6667 230° Southwest 480 552 36,000  Level Edmonton Center
Fri 01:07:00 PM 59.6155 -95.2071 231° Southwest  Level Estimated
Fri 01:07:37 PM 62.4667 -103.8500 220° Southwest 470 541 36,000  Level Edmonton Center
Fri 01:08:00 PM 59.5306 -95.4091 230° Southwest  Level Estimated
Fri 01:08:37 PM 62.3667 -104.0000 215° Southwest 470 541 36,000  Level Edmonton Center
Fri 01:09:00 PM 59.4454 -95.6101 230° Southwest  Level Estimated
Fri 01:09:37 PM 62.2500 -104.1833 216° Southwest 470 541 36,000  Level Edmonton Center
Fri 01:10:00 PM 59.3599 -95.8101 230° Southwest  Level Estimated
Fri 01:10:37 PM 62.1500 -104.3667 221° Southwest 470 541 36,000  Level Edmonton Center
Fri 01:11:00 PM 59.2741 -96.0091 230° Southwest  Level Estimated
Fri 01:11:37 PM 62.0500 -104.5167 215° Southwest 470 541 36,000  Level Edmonton Center
Fri 01:12:37 PM 61.9500 -104.7000 221° Southwest 470 541 36,000  Level Edmonton Center
Fri 01:13:37 PM 61.8333 -104.8833 217° Southwest 470 541 36,000  Level Edmonton Center
Fri 01:14:37 PM 61.7333 -105.0667 221° Southwest 470 541 36,000  Level Edmonton Center
Fri 01:15:37 PM 61.6167 -105.2500 217° Southwest 470 541 36,000  Level Edmonton Center
Fri 01:16:37 PM 61.5167 -105.4167 219° Southwest 470 541 36,000  Level Edmonton Center
Fri 01:17:37 PM 61.4000 -105.6000 217° Southwest 470 541 36,000  Level Edmonton Center
Fri 01:18:37 PM 61.3000 -105.7333 213° Southwest 480 552 36,000  Level Edmonton Center
Fri 01:19:37 PM 61.2000 -105.9000 219° Southwest 470 541 36,000  Level Edmonton Center
Fri 01:20:37 PM 61.0833 -106.0833 217° Southwest 470 541 36,000  Level Edmonton Center
Fri 01:21:37 PM 60.9833 -106.2500 219° Southwest 470 541 36,000  Level Edmonton Center
Fri 01:22:37 PM 60.8833 -106.3833 213° Southwest 470 541 36,000  Level Edmonton Center
Fri 01:23:37 PM 60.7667 -106.5500 215° Southwest 470 541 36,000  Level Edmonton Center
Fri 01:24:37 PM 60.6667 -106.7167 219° Southwest 470 541 36,000  Level Edmonton Center
Fri 01:25:37 PM 60.5500 -106.8833 215° Southwest 470 541 36,000  Level Edmonton Center
Fri 01:26:37 PM 60.4500 -107.0167 213° Southwest 460 529 36,000  Level Edmonton Center
Fri 01:27:37 PM 60.3500 -107.1833 220° Southwest 470 541 36,000  Level Edmonton Center
Fri 01:28:37 PM 60.2500 -107.3500 220° Southwest 470 541 36,000  Level Edmonton Center
Fri 01:30:37 PM 60.0167 -107.6833 216° Southwest 470 541 36,000  Level Edmonton Center
Fri 01:31:37 PM 59.9167 -107.8000 210° Southwest 470 541 36,000  Level Edmonton Center
Fri 01:32:37 PM 59.8000 -107.9667 216° Southwest 470 541 36,000  Level Edmonton Center
Fri 01:33:37 PM 59.7000 -108.1167 217° Southwest 470 541 36,000  Level Edmonton Center
Fri 01:34:37 PM 59.6000 -108.2500 214° Southwest 470 541 36,000  Level Edmonton Center
Fri 01:35:37 PM 59.4833 -108.4000 213° Southwest 470 541 36,000  Level Edmonton Center
Fri 01:36:37 PM 59.3833 -108.5667 220° Southwest 470 541 36,000  Level Edmonton Center
Fri 01:37:37 PM 59.2833 -108.7167 217° Southwest 470 541 36,000  Level Edmonton Center
Fri 01:38:37 PM 59.1500 -108.8333 204° Southwest 470 541 36,000  Level Edmonton Center
Fri 01:39:37 PM 59.0500 -108.9833 218° Southwest 470 541 36,000  Level Edmonton Center
Fri 01:40:37 PM 58.9500 -109.1000 211° Southwest 470 541 36,000  Level Edmonton Center
Fri 01:41:37 PM 58.8000 -109.2167 202° Southwest 480 552 36,000  Level Edmonton Center
Fri 01:42:37 PM 58.6833 -109.3333 207° Southwest 480 552 36,000  Level Edmonton Center
Fri 01:43:37 PM 58.5500 -109.4500 205° Southwest 480 552 36,000  Level Edmonton Center
Fri 01:44:37 PM 58.4500 -109.5667 211° Southwest 480 552 36,000  Level Edmonton Center
Fri 01:45:37 PM 58.3333 -109.6833 208° Southwest 480 552 36,000  Level Edmonton Center
Fri 01:46:37 PM 58.2000 -109.8000 205° Southwest 480 552 36,000  Level Edmonton Center
Fri 01:47:37 PM 58.0833 -109.9000 204° Southwest 480 552 36,000  Level Edmonton Center
Fri 01:48:37 PM 57.9500 -110.0167 205° Southwest 480 552 36,000  Level Edmonton Center
Fri 01:49:37 PM 57.8333 -110.1000 201° Southwest 480 552 36,000  Level Edmonton Center
Fri 01:50:37 PM 57.7167 -110.2000 205° Southwest 480 552 36,000  Level Edmonton Center
Fri 01:51:37 PM 57.5833 -110.3167 205° Southwest 480 552 36,000  Level Edmonton Center
Fri 01:52:37 PM 57.4833 -110.4167 208° Southwest 480 552 36,000  Level Edmonton Center
Fri 01:53:37 PM 57.3333 -110.5333 203° Southwest 480 552 36,000  Level Edmonton Center
Fri 01:54:37 PM 57.2333 -110.6333 208° Southwest 480 552 36,000  Level Edmonton Center
Fri 01:55:37 PM 57.1000 -110.7333 202° Southwest 480 552 36,000  Level Edmonton Center
Fri 01:56:37 PM 56.9833 -110.8500 209° Southwest 480 552 36,000  Level Edmonton Center
Fri 01:57:37 PM 56.8667 -110.9500 205° Southwest 480 552 36,000  Level Edmonton Center
Fri 01:58:37 PM 56.7333 -111.0500 202° Southwest 480 552 36,000  Level Edmonton Center
Fri 01:59:37 PM 56.6167 -111.1667 209° Southwest 480 552 36,000  Level Edmonton Center
Fri 02:00:37 PM 56.4833 -111.2667 203° Southwest 480 552 36,000  Level Edmonton Center
Fri 02:01:37 PM 56.3667 -111.3667 205° Southwest 470 541 36,000  Level Edmonton Center
Fri 02:02:37 PM 56.2333 -111.4667 203° Southwest 470 541 36,000  Level Edmonton Center
Fri 02:03:37 PM 56.1167 -111.5667 206° Southwest 480 552 36,000  Level Edmonton Center
Fri 02:04:37 PM 56.0000 -111.6667 206° Southwest 480 552 36,000  Level Edmonton Center
Fri 02:05:37 PM 55.8833 -111.7667 206° Southwest 470 541 36,000  Level Edmonton Center
Fri 02:06:37 PM 55.7667 -111.8667 206° Southwest 470 541 36,000  Level Edmonton Center
Fri 02:07:37 PM 55.6500 -111.9667 206° Southwest 470 541 36,000  Level Edmonton Center
Fri 02:08:37 PM 55.5333 -112.0667 206° Southwest 470 541 36,000  Level Edmonton Center
Fri 02:09:37 PM 55.4000 -112.1667 203° Southwest 470 541 36,000  Level Edmonton Center
Fri 02:10:37 PM 55.2667 -112.2833 207° Southwest 480 552 36,000  Level Edmonton Center
Fri 02:15:15 PM 54.7218 -112.7112 204° Southwest 493 567 36,000  Level FlightAware ADS-B
Fri 02:16:29 PM 54.5666 -112.8323 204° Southwest 491 565 36,000  Level FlightAware ADS-B
Fri 02:16:59 PM 54.5041 -112.8819 204° Southwest 490 564 36,000  Level FlightAware ADS-B
Fri 02:17:33 PM 54.4348 -112.9346 204° Southwest 491 565 36,000  Level FlightAware ADS-B
Fri 02:18:29 PM 54.3180 -113.0251 204° Southwest 490 564 36,000  Level FlightAware ADS-B
Fri 02:19:03 PM 54.2479 -113.0786 204° Southwest 488 562 36,000  Level FlightAware ADS-B
Fri 02:19:47 PM 54.1571 -113.1476 204° Southwest 488 562 36,000  Level FlightAware ADS-B
Fri 02:21:02 PM 54.0029 -113.2631 204° Southwest 490 564 36,000  Level FlightAware ADS-B
Fri 02:21:33 PM 53.9396 -113.3113 204° Southwest 490 564 36,000  Level FlightAware ADS-B
Fri 02:22:03 PM 53.8765 -113.3579 204° Southwest 490 564 36,000  Level FlightAware ADS-B
Fri 02:22:34 PM 53.8120 -113.4072 204° Southwest 490 564 36,000  Level FlightAware ADS-B
Fri 02:23:04 PM 53.7514 -113.4519 204° Southwest 489 563 36,000  Level FlightAware ADS-B
Fri 02:23:34 PM 53.6921 -113.4965 204° Southwest 490 564 36,000  Level FlightAware ADS-B
Fri 02:24:13 PM 53.6061 -113.5594 204° Southwest 491 565 36,000  Level FlightAware ADS-B (CYED)
Fri 02:24:43 PM 53.5438 -113.6053 204° Southwest 491 565 36,000  Level FlightAware ADS-B (CYED)
Fri 02:25:14 PM 53.4808 -113.6511 204° Southwest 491 565 36,000  Level FlightAware ADS-B (CYED)
Fri 02:25:49 PM 53.4089 -113.7043 204° Southwest 491 565 36,000  Level FlightAware ADS-B
Fri 02:26:19 PM 53.3448 -113.7514 203° Southwest 491 565 36,000  Level FlightAware ADS-B
Fri 02:26:49 PM 53.2846 -113.7951 203° Southwest 491 565 36,000  Level FlightAware ADS-B
Fri 02:27:33 PM 53.1904 -113.8628 203° Southwest 491 565 36,000  Level FlightAware ADS-B
Fri 02:28:03 PM 53.1287 -113.9057 203° Southwest 493 567 36,000  Level FlightAware ADS-B
Fri 02:28:34 PM 53.0644 -113.9512 203° Southwest 494 568 36,000  Level FlightAware ADS-B
Fri 02:29:05 PM 52.9992 -113.9964 203° Southwest 494 568 36,000 857 Level FlightAware ADS-B
Fri 02:29:44 PM 52.9208 -114.0506 203° Southwest 494 568 37,000 1,437 Climbing FlightAware ADS-B
Fri 02:30:16 PM 52.9208 -114.0506 203° Southwest 493 567 37,700 909 Climbing FlightAware ADS-B
Fri 02:30:50 PM 52.7769 -114.1510 203° Southwest 494 568 38,000 231 Climbing FlightAware ADS-B
Fri 02:31:34 PM 52.6844 -114.2146 203° Southwest 494 568 38,000  Level FlightAware ADS-B
Fri 02:32:04 PM 52.6304 -114.2507 203° Southwest 495 570 38,000  Level FlightAware ADS-B
Fri 02:32:37 PM 52.5167 -114.3167 203° Southwest 490 564 38,000  Level Edmonton Center
Fri 02:33:37 PM 52.4000 -114.4000 204° Southwest 490 564 38,000  Level Edmonton Center
Fri 02:34:37 PM 52.2667 -114.5167 208° Southwest 490 564 38,000  Level Edmonton Center
Fri 02:35:37 PM 52.1500 -114.6000 204° Southwest 490 564 38,000  Level Edmonton Center
Fri 02:36:37 PM 52.0333 -114.6833 204° Southwest 480 552 38,000  Level Edmonton Center
Fri 02:37:37 PM 51.8833 -114.7500 195° South 480 552 38,000  Level Edmonton Center
Fri 02:38:37 PM 51.7833 -114.8500 212° Southwest 480 552 38,000  Level Edmonton Center
Fri 02:39:37 PM 51.6333 -114.9167 195° South 480 552 38,000  Level Edmonton Center
Fri 02:40:37 PM 51.5333 -115.0000 207° Southwest 480 552 38,000  Level Edmonton Center
Fri 02:41:37 PM 51.3833 -115.0833 199° South 480 552 38,000  Level Edmonton Center
Fri 02:42:37 PM 51.2833 -115.1667 208° Southwest 480 552 38,000  Level Edmonton Center
Fri 02:43:37 PM 51.1500 -115.2333 197° South 480 552 38,000  Level Edmonton Center
Fri 02:44:37 PM 51.0167 -115.3167 201° Southwest 490 564 38,000  Level Edmonton Center
Fri 02:45:37 PM 50.9167 -115.4333 216° Southwest 480 552 38,000  Level Edmonton Center
Fri 02:46:37 PM 50.7833 -115.5333 205° Southwest 480 552 38,000  Level Edmonton Center
Fri 02:47:37 PM 50.6500 -115.6000 198° South 490 564 38,000  Level Edmonton Center
Fri 02:48:37 PM 50.5333 -115.7167 212° Southwest 490 564 38,000  Level Edmonton Center
Fri 02:49:37 PM 50.4167 -115.8167 209° Southwest 490 564 38,000  Level Edmonton Center
Fri 02:50:37 PM 50.2833 -115.9167 206° Southwest 490 564 38,000  Level Edmonton Center
Fri 02:51:37 PM 50.1667 -116.0000 205° Southwest 480 552 38,000  Level Edmonton Center
Fri 02:52:37 PM 50.0500 -116.1000 209° Southwest 480 552 38,000  Level Edmonton Center
Fri 02:53:37 PM 49.9333 -116.1667 200° South 480 552 38,000  Level Edmonton Center
Fri 02:54:37 PM 49.8000 -116.2667 206° Southwest 470 541 38,000  Level Edmonton Center
Fri 02:55:37 PM 49.7000 -116.3500 208° Southwest 470 541 38,000  Level Edmonton Center
Fri 02:56:37 PM 49.5667 -116.4500 206° Southwest 470 541 38,000  Level Edmonton Center
Fri 02:57:37 PM 49.4500 -116.5167 200° South 480 552 38,000  Level Edmonton Center
Fri 02:58:37 PM 49.3500 -116.6333 217° Southwest 480 552 38,000  Level Edmonton Center
Fri 02:59:37 PM 49.2167 -116.7000 198° South 480 552 38,000  Level Edmonton Center
Fri 03:00:37 PM 49.0833 -116.8000 206° Southwest 480 552 38,000  Level Edmonton Center
Fri 03:01:37 PM 48.9667 -116.9000 209° Southwest 470 541 38,000  Level Edmonton Center
Fri 03:02:37 PM 48.8500 -116.9667 201° Southwest 470 541 38,000  Level Edmonton Center
Fri 03:03:37 PM 48.7333 -117.0667 209° Southwest 470 541 38,000  Level Edmonton Center
Fri 03:04:37 PM 48.6000 -117.1333 198° South 470 541 38,000  Level Edmonton Center
Fri 03:05:37 PM 48.5000 -117.2333 214° Southwest 480 552 38,000  Level Edmonton Center
Fri 03:06:37 PM 48.3833 -117.3000 201° Southwest 470 541 38,000  Level Edmonton Center
Fri 03:07:53 PM 48.2631 -117.3756 203° Southwest 475 547 38,000  Level Seattle Center
Fri 03:08:54 PM 48.1436 -117.4600 205° Southwest 479 551 38,000 -49 Level Seattle Center
Fri 03:09:56 PM 48.0222 -117.5436 205° Southwest 482 555 37,900  Descending Seattle Center
Fri 03:10:57 PM 47.9019 -117.6264 205° Southwest 482 555 38,000 49 Climbing Seattle Center
Fri 03:11:58 PM 47.7814 -117.7086 205° Southwest 481 554 38,000  Level Seattle Center
Fri 03:12:59 PM 47.6375 -117.8069 205° Southwest 480 552 38,000  Level Seattle Center
Fri 03:14:00 PM 47.5178 -117.8875 204° Southwest 478 550 38,000  Level Seattle Center
Fri 03:15:01 PM 47.3975 -117.9689 205° Southwest 478 550 38,000  Level Seattle Center
Fri 03:16:03 PM 47.2767 -118.0503 205° Southwest 480 552 38,000  Level Seattle Center
Fri 03:17:04 PM 47.1572 -118.1314 205° Southwest 477 549 38,000  Level Seattle Center
Fri 03:18:05 PM 47.0364 -118.2106 204° Southwest 478 550 38,000  Level Seattle Center
Fri 03:19:06 PM 46.9150 -118.2897 204° Southwest 479 551 38,000  Level Seattle Center
Fri 03:20:07 PM 46.7953 -118.3692 204° Southwest 476 548 38,000  Level Seattle Center
Fri 03:21:08 PM 46.6733 -118.4475 204° Southwest 479 551 38,000  Level Seattle Center
Fri 03:22:09 PM 46.5278 -118.5433 204° Southwest 480 552 38,000  Level Seattle Center
Fri 03:23:10 PM 46.4064 -118.6197 203° Southwest 477 549 38,000  Level Seattle Center
Fri 03:24:11 PM 46.2844 -118.6992 204° Southwest 480 552 38,000  Level Seattle Center
Fri 03:25:13 PM 46.1747 -118.7683 204° Southwest 481 554 38,000  Level Seattle Center
Fri 03:31:23 PM 45.3908 -119.2596 204° Southwest 486 559 38,000  Level FlightAware ADS-B (SBFL / FLN)
Fri 03:32:20 PM 45.2875 -119.3247 204° Southwest 488 562 38,000 151 Level Seattle Center
Fri 03:33:22 PM 45.1628 -119.4014 203° Southwest 488 562 38,300 488 Climbing Seattle Center
Fri 03:34:23 PM 45.0361 -119.4792 203° Southwest 491 565 39,000 344 Climbing Seattle Center
Fri 03:35:24 PM 44.9064 -119.5578 203° Southwest 499 574 39,000  Level Seattle Center
Fri 03:36:25 PM 44.7778 -119.6353 203° Southwest 498 573 39,000  Level Seattle Center
Fri 03:37:26 PM 44.6494 -119.7133 203° Southwest 496 571 39,000  Level Seattle Center
Fri 03:38:27 PM 44.5203 -119.7900 203° Southwest 500 575 39,000  Level Seattle Center
Fri 03:39:28 PM 44.3925 -119.8661 203° Southwest 498 573 39,000  Level Seattle Center
Fri 03:45:48 PM 43.5499 -120.3210 200° South 498 573 39,000  Level FlightAware ADS-B (SBFL / FLN)
Fri 03:46:27 PM 43.4794 -120.3575 200° South 498 573 39,000  Level FlightAware ADS-B (SBFL / FLN)
Fri 03:49:20 PM 43.0872 -120.5557 200° South 502 578 39,000  Level FlightAware ADS-B (SBFL / FLN)
Fri 03:50:16 PM 42.9767 -120.6139 200° South 500 575 39,000  Level Oakland Center
Fri 03:51:17 PM 42.8447 -120.6778 200° South 502 578 39,000  Level Oakland Center
Fri 03:52:19 PM 42.7144 -120.7411 200° South 500 575 39,000  Level Oakland Center
Fri 03:53:20 PM 42.5819 -120.8056 200° South 502 578 39,000  Level Oakland Center
Fri 03:54:22 PM 42.4514 -120.8692 200° South 500 575 39,000  Level Oakland Center
Fri 03:55:24 PM 42.3214 -120.9331 200° South 497 572 39,000  Level Oakland Center
Fri 03:56:25 PM 42.1892 -120.9958 199° South 499 574 39,000  Level Oakland Center
Fri 03:57:27 PM 42.0594 -121.0586 200° South 496 571 39,000  Level Oakland Center
Fri 03:58:29 PM 41.9028 -121.1350 200° South 495 570 39,000  Level Oakland Center
Fri 03:59:31 PM 41.7742 -121.1956 199° South 490 564 39,000  Level Oakland Center
Fri 04:05:17 PM 41.0229 -121.5538 200° South 485 558 39,000  Level FlightAware ADS-B
Fri 04:05:47 PM 40.9590 -121.5834 199° South 484 557 39,000  Level FlightAware ADS-B
Fri 04:06:32 PM 40.8622 -121.6285 199° South 482 555 39,000  Level FlightAware ADS-B
Fri 04:07:02 PM 40.7994 -121.6578 199° South 480 552 39,000  Level FlightAware ADS-B
Fri 04:07:45 PM 40.7104 -121.6985 199° South 478 550 39,000  Level FlightAware ADS-B
Fri 04:08:25 PM 40.6278 -121.7370 199° South 477 549 39,000  Level FlightAware ADS-B
Fri 04:09:00 PM 40.5534 -121.7715 199° South 476 548 39,000  Level FlightAware ADS-B
Fri 04:09:30 PM 40.4902 -121.8002 199° South 474 545 39,000  Level FlightAware ADS-B
Fri 04:10:07 PM 40.4140 -121.8353 199° South 473 544 39,000  Level FlightAware ADS-B
Fri 04:10:50 PM 40.3400 -121.8692 199° South 472 543 39,000  Level FlightAware ADS-B (KSAC)
Fri 04:11:54 PM 40.2013 -121.9323 199° South 472 543 39,000  Level FlightAware ADS-B
Fri 04:12:29 PM 40.1215 -121.9688 199° South 473 544 39,000  Level FlightAware ADS-B
Fri 04:13:12 PM 40.0322 -122.0092 199° South 474 545 39,000  Level FlightAware ADS-B
Fri 04:13:51 PM 39.9631 -122.0404 199° South 475 547 39,000  Level FlightAware ADS-B (KSAC)
Fri 04:14:31 PM 39.8822 -122.0770 199° South 477 549 39,000  Level FlightAware ADS-B (KSAC)
Fri 04:15:13 PM 39.7771 -122.1089 190° South 488 562 39,000  Level FlightAware ADS-B
Fri 04:16:10 PM 39.6724 -122.1328 190° South 488 562 39,000  Level FlightAware ADS-B (KSAC)
Fri 04:16:50 PM 39.5806 -122.1537 190° South 489 563 39,000  Level FlightAware ADS-B (KSAC)
Fri 04:17:31 PM 39.4886 -122.1748 190° South 490 564 39,000  Level FlightAware ADS-B (KSAC)
Fri 04:18:09 PM 39.4035 -122.1945 189° South 492 566 39,000 -1,333 Level FlightAware ADS-B (KSAC)
Fri 04:19:10 PM 39.2669 -122.2366 197° South 501 577 36,800 -1,960 Descending FlightAware ADS-B (KSAC)
Fri 04:19:50 PM 39.1803 -122.2799 203° Southwest 484 557 35,700 -1,950 Descending FlightAware ADS-B (KSAC)
Fri 04:20:30 PM 39.0984 -122.3264 203° Southwest 473 544 34,200 -2,296 Descending FlightAware ADS-B (KSAC)
Fri 04:21:11 PM 39.0154 -122.3719 203° Southwest 466 536 32,600 -2,296 Descending FlightAware ADS-B (KSAC)
Fri 04:21:51 PM 38.9402 -122.4128 202° Southwest 459 528 31,100 -2,340 Descending FlightAware ADS-B (KSAC)
Fri 04:22:51 PM 38.8216 -122.4764 202° Southwest 452 520 28,700 -2,340 Descending FlightAware ADS-B (KSAC)
Fri 04:23:31 PM 38.7428 -122.5176 202° Southwest 440 506 27,200 -2,220 Descending FlightAware ADS-B (KSAC)
Fri 04:24:31 PM 38.6319 -122.5766 202° Southwest 426 490 25,000 -2,350 Descending FlightAware ADS-B (KSAC)
Fri 04:25:31 PM 38.5209 -122.6357 202° Southwest 424 488 22,500 -2,265 Descending FlightAware ADS-B (KSAC)
Fri 04:26:09 PM 38.4536 -122.6714 202° Southwest 413 475 21,300 -2,025 Descending FlightAware ADS-B (KSAC)
Fri 04:26:51 PM 38.3800 -122.7104 202° Southwest 406 467 19,800 -1,934 Descending FlightAware ADS-B (KSAC)
Fri 04:28:10 PM 38.2472 -122.7796 202° Southwest 383 441 17,400 -1,929 Descending FlightAware ADS-B (KSAC)
Fri 04:29:11 PM 38.1475 -122.8199 181° South 375 432 15,300 -2,218 Descending FlightAware ADS-B (KSAC)
Fri 04:30:09 PM 38.0722 -122.7891 151° Southeast 378 435 13,000 -1,290 Descending FlightAware ADS-B (KSAC)
Fri 04:32:31 PM 37.8761 -122.6473 139° Southeast 305 351 11,000 -805 Descending FlightAware ADS-B (KSAC)
Fri 04:32:53 PM 37.8254 -122.5930 140° Southeast 305 351 10,800 -152 Descending FlightAware ADS-B
Fri 04:33:50 PM 37.7650 -122.5290 140° Southeast 304 350 10,800  Level FlightAware ADS-B
Fri 04:34:33 PM 37.7207 -122.4820 140° Southeast 281 323 10,800  Level FlightAware ADS-B
Fri 04:35:26 PM 37.6684 -122.4260 140° Southeast 265 305 10,800  Level FlightAware ADS-B
Fri 04:35:56 PM 37.6404 -122.3960 140° Southeast 263 303 10,800 -103 Level FlightAware ADS-B
Fri 04:36:24 PM 37.6137 -122.3700 149° Southeast 260 299 10,700 -873 Descending FlightAware ADS-B
Fri 04:36:51 PM 37.5843 -122.3520 156° South 255 293 10,000 -1,571 Descending FlightAware ADS-B
Fri 04:37:06 PM 37.5680 -122.3430 156° South 254 292 9,600 -1,655 Descending FlightAware ADS-B
Fri 04:37:20 PM 37.5534 -122.3350 156° South 253 291 9,200 -1,714 Descending FlightAware ADS-B
Fri 04:37:34 PM 37.5384 -122.3260 156° South 251 289 8,800 -1,400 Descending FlightAware ADS-B
Fri 04:37:50 PM 37.5220 -122.3180 156° South 245 282 8,500 -1,371 Descending FlightAware ADS-B
Fri 04:38:09 PM 37.5026 -122.3070 156° South 244 281 8,000 -1,543 Descending FlightAware ADS-B
Fri 04:38:25 PM 37.4858 -122.2980 156° South 240 276 7,600 -1,548 Descending FlightAware ADS-B
Fri 04:38:40 PM 37.4701 -122.2890 157° South 239 275 7,200 -1,688 Descending FlightAware ADS-B
Fri 04:38:57 PM 37.4534 -122.2800 156° South 238 274 6,700 -1,688 Descending FlightAware ADS-B
Fri 04:39:12 PM 37.4380 -122.2710 156° South 238 274 6,300 -1,667 Descending FlightAware ADS-B
Fri 04:39:15 PM 37.4351 -122.2680 146° Southeast 235 270 6,200 -2,571 Descending FlightAware ADS-B
Fri 04:39:19 PM 37.4320 -122.2650 139° Southeast 235 270 6,000 -2,250 Descending FlightAware ADS-B
Fri 04:39:23 PM 37.4291 -122.2610 131° Southeast 234 269 5,900 -1,500 Descending FlightAware ADS-B
Fri 04:39:27 PM 37.4265 -122.2560 125° Southeast 234 269 5,800 -1,765 Descending FlightAware ADS-B
Fri 04:39:40 PM 37.4198 -122.2410 117° Southeast 231 266 5,400 -1,600 Descending FlightAware ADS-B
Fri 04:39:57 PM 37.4113 -122.2210 118° Southeast 229 264 5,000 -1,385 Descending FlightAware ADS-B
Fri 04:40:06 PM 37.4072 -122.2120 118° Southeast 229 264 4,800 -1,286 Descending FlightAware ADS-B
Fri 04:40:11 PM 37.4047 -122.2040 113° Southeast 228 262 4,700 -1,500 Descending FlightAware ADS-B
Fri 04:40:14 PM 37.4037 -122.2010 108° East 227 261 4,600 -1,714 Descending FlightAware ADS-B
Fri 04:40:18 PM 37.4030 -122.1950 99° East 227 261 4,500 -857 Descending FlightAware ADS-B
Fri 04:40:21 PM 37.4028 -122.1920 91° East 226 260 4,500 -857 Level FlightAware ADS-B
Fri 04:40:25 PM 37.4031 -122.1860 84° East 224 258 4,400 -1,333 Descending FlightAware ADS-B
Fri 04:40:30 PM 37.4045 -122.1800 71° East 219 252 4,300 -1,200 Descending FlightAware ADS-B
Fri 04:40:35 PM 37.4064 -122.1750 62° Northeast 216 249 4,200 -1,500 Descending FlightAware ADS-B
Fri 04:40:38 PM 37.4084 -122.1710 55° Northeast 213 245 4,100 -1,000 Descending FlightAware ADS-B
Fri 04:40:41 PM 37.4104 -122.1690 45° Northeast 209 241 4,100 -600 Level FlightAware ADS-B
Fri 04:40:48 PM 37.4157 -122.1640 28° Northeast 202 232 4,000 -923 Descending FlightAware ADS-B
Fri 04:40:54 PM 37.4210 -122.1610 16° North 198 228 3,900 -545 Descending FlightAware ADS-B
Fri 04:41:10 PM 37.4352 -122.1630 346° North 190 219 3,800 -286 Descending FlightAware ADS-B
Fri 04:41:15 PM 37.4387 -122.1640 343° North 184 212 3,800  Level FlightAware ADS-B
Fri 04:41:30 PM 37.4508 -122.1690 342° North 174 200 3,800  Level FlightAware ADS-B
Fri 04:41:45 PM 37.4622 -122.1740 342° North 173 199 3,800  Level FlightAware ADS-B
Fri 04:41:52 PM 37.4677 -122.1760 341° North 170 196 3,800  Level FlightAware ADS-B
Fri 04:41:58 PM 37.4716 -122.1770 345° North 170 196 3,800  Level FlightAware ADS-B
Fri 04:42:02 PM 37.4748 -122.1780 348° North 172 198 3,800 -500 Level FlightAware ADS-B
Fri 04:42:10 PM 37.4815 -122.1800 352° North 172 198 3,700 -706 Descending FlightAware ADS-B
Fri 04:42:19 PM 37.4887 -122.1810 353° North 171 197 3,600 -1,000 Descending FlightAware ADS-B
Fri 04:42:34 PM 37.5007 -122.1830 353° North 172 198 3,300 -1,161 Descending FlightAware ADS-B
Fri 04:42:50 PM 37.5130 -122.1850 353° North 173 199 3,000 -1,143 Descending FlightAware ADS-B
Fri 04:42:55 PM 37.5169 -122.1860 349° North 174 200 2,900 -667 Descending FlightAware ADS-B
Fri 04:42:59 PM 37.5201 -122.1870 345° North 175 201 2,900 -545 Level FlightAware ADS-B
Fri 04:43:06 PM 37.5254 -122.1890 341° North 175 201 2,800 -818 Descending FlightAware ADS-B
Fri 04:43:21 PM 37.5370 -122.1940 339° North 173 199 2,600 -1,000 Descending FlightAware ADS-B
Fri 04:43:24 PM 37.5396 -122.1960 335° Northwest 173 199 2,500 -857 Descending FlightAware ADS-B
Fri 04:43:28 PM 37.5418 -122.1970 326° Northwest 174 200 2,500  Level FlightAware ADS-B
Fri 04:43:31 PM 37.5437 -122.1990 318° Northwest 177 204 2,500  Level FlightAware ADS-B
Fri 04:43:35 PM 37.5461 -122.2030 308° West 177 204 2,500 -857 Level FlightAware ADS-B
Fri 04:43:38 PM 37.5476 -122.2050 304° West 178 205 2,400 -857 Descending FlightAware ADS-B
Fri 04:43:42 PM 37.5493 -122.2090 300° West 177 204 2,400 -750 Level FlightAware ADS-B
Fri 04:43:46 PM 37.5509 -122.2130 298° West 176 203 2,300 -800 Descending FlightAware ADS-B
Fri 04:43:57 PM 37.5549 -122.2230 296° West 175 201 2,200 -818 Descending FlightAware ADS-B
Fri 04:44:08 PM 37.5586 -122.2320 298° West 172 198 2,000 -923 Descending FlightAware ADS-B
Fri 04:44:23 PM 37.5643 -122.2450 298° West 164 189 1,800 -938 Descending FlightAware ADS-B
Fri 04:44:40 PM 37.5704 -122.2600 298° West 163 188 1,500 -889 Descending FlightAware ADS-B
Fri 04:44:50 PM 37.5738 -122.2680 298° West 163 188 1,400 -818 Descending FlightAware ADS-B
Fri 04:45:02 PM 37.5780 -122.2780 298° West 153 176 1,200 -923 Descending FlightAware ADS-B
Fri 04:45:16 PM 37.5824 -122.2880 298° West 149 171 1,000 -621 Descending FlightAware ADS-B
Fri 04:45:31 PM 37.5872 -122.3000 298° West 145 167 900 -563 Descending FlightAware ADS-B
Fri 04:45:48 PM 37.5926 -122.3130 298° West 140 161 700 -727 Descending FlightAware ADS-B
Fri 04:46:04 PM 37.5973 -122.3230 298° West 140 161 500 -750 Descending FlightAware ADS-B
Fri 04:46:12 PM 37.5998 -122.3300 298° West 140 161 400 -750 Descending FlightAware ADS-B
Fri 04:46:20 PM 37.6022 -122.3350 298° West 138 159 300 -783 Descending FlightAware ADS-B
Fri 04:46:35 PM 37.6068 -122.3460 298° West 137 158 100 -800 Descending FlightAware ADS-B
Fri 04:46:59 PM 37.6139 -122.3630 298° West 133 153 -250 Descending FlightAware ADS-B

Login

Don't have an account? Register now (free) for customized features, flight alerts, and more!